Portada
METAR-TAF:

METAR-TAF

Aeropuertos :

Aeropuerto de Granada

Granada, España

latitud: 37-11N, longitud: 003-47W, altitud: 567 m

Observación

El informe se hizo hace 25 minutos, a las 15:30 UTC
Viento 11 kt del oeste-suroeste, variando entre sur-suroeste y oeste-noroeste
Temperatura 34°C
Humedad 18%
Presión 1013 hPa
Visibilidad 10 km o más
Escasas nubes a una altura de 5000 ft

METAR: LEGR 281530Z 25011KT 200V290 9999 FEW050 34/06 Q1013

Hora: 17:55 (15:55 UTC)

Pronóstico

El informe se hizo hace 4 horas y 55 minutos, a las 11:00 UTC
Pronóstico válido del 28 a las 12 UTC al 29 a las 12 UTC
Viento 10 kt del oeste-suroeste
Visibilidad 10 km o más
sin nubes por debajo de 1500 m y sin presencia de cumulonimbus.
Evolucionando progresivamente
del 28 a las 19 UTC al 28 a las 21 UTC
Viento 2 kt con dirección variable

TAF: LEGR 281100Z 2812/2912 25010KT CAVOK TX34/2815Z TN14/2906Z BECMG 2819/2821 VRB02KT

Observaciones y pronósticos meteorológicos de más de 4000 aeropuertos (mensajes METAR y TAF).

Los puntos amarillos y rojos representan las estaciones disponibles.

Ponga el ratón en el punto deseado para ver el nombre de la estación.

Haga clic para ver las observaciones y los pronósticos meteorológicos.

Para cambiar el mapa : haga clic en los botones verdes con una cruz de color negro para hacer un zoom, en el botón verde con un guión para alejar o en las flechas verdes para mapas adyacentes.


METAR-TAF: